createdAt,value
2022-08-26T06:53:13.883Z,17.05
2022-08-26T06:56:07.387Z,15.65
2022-08-26T06:58:55.846Z,15.73
2022-08-26T07:01:45.285Z,16.33
2022-08-26T07:04:33.208Z,16.30
2022-08-26T07:07:19.434Z,15.95
2022-08-26T07:10:08.782Z,16.80
2022-08-26T07:12:55.265Z,17.15
2022-08-26T07:15:42.461Z,15.85
2022-08-26T07:18:28.696Z,18.63
2022-08-26T07:21:17.269Z,16.88
2022-08-26T07:24:04.760Z,17.48
2022-08-26T07:26:50.823Z,17.33
2022-08-26T07:29:39.401Z,18.10
2022-08-26T07:32:25.777Z,17.13
2022-08-26T07:35:11.705Z,15.50
2022-08-26T07:37:58.065Z,17.77
2022-08-26T07:40:44.261Z,15.45
2022-08-26T07:43:30.941Z,14.25
2022-08-26T07:46:20.726Z,15.60
2022-08-26T07:49:13.161Z,13.10
2022-08-26T07:51:59.399Z,14.00
2022-08-26T07:54:45.728Z,14.18
2022-08-26T07:57:31.797Z,11.98
2022-08-26T08:00:18.248Z,13.02
2022-08-26T08:03:05.847Z,11.63
2022-08-26T08:05:51.907Z,10.13
2022-08-26T08:08:41.385Z,11.00
2022-08-26T08:11:30.860Z,9.82
2022-08-26T08:14:18.246Z,11.82
2022-08-26T08:17:08.391Z,9.75
2022-08-26T08:19:54.553Z,9.15
2022-08-26T08:22:42.515Z,8.73
2022-08-26T08:25:29.203Z,7.93
2022-08-26T08:28:16.233Z,7.45
2022-08-26T08:31:02.910Z,9.15
2022-08-26T08:33:49.850Z,8.75
2022-08-26T08:36:37.857Z,9.63
2022-08-26T08:39:28.015Z,9.77
2022-08-26T08:42:44.536Z,8.73
2022-08-26T08:46:00.446Z,7.20
2022-08-26T08:48:51.801Z,7.07
2022-08-26T08:51:43.914Z,5.80
2022-08-26T08:54:31.951Z,7.82
2022-08-26T08:57:40.639Z,6.70
2022-08-26T09:00:32.224Z,6.35
2022-08-26T09:03:57.152Z,7.10
2022-08-26T09:06:44.338Z,6.68
2022-08-26T09:09:37.714Z,6.43
2022-08-26T09:12:29.806Z,5.40
2022-08-26T09:15:33.223Z,6.22
2022-08-26T09:18:34.562Z,5.55
2022-08-26T09:21:23.529Z,4.85
2022-08-26T09:24:13.835Z,4.55
2022-08-26T09:27:00.696Z,3.85
2022-08-26T09:29:50.450Z,4.53
2022-08-26T09:32:39.321Z,4.50
2022-08-26T09:35:28.219Z,4.57
2022-08-26T09:38:28.223Z,4.10
2022-08-26T09:41:40.928Z,4.25
2022-08-26T09:44:27.168Z,3.40
2022-08-26T09:47:13.333Z,4.15
2022-08-26T09:50:12.380Z,4.47
2022-08-26T09:53:28.517Z,3.47
2022-08-26T09:56:27.536Z,3.83
2022-08-26T09:59:14.945Z,4.45
2022-08-26T10:02:47.829Z,3.70
2022-08-26T10:05:45.957Z,4.13
2022-08-26T10:08:42.078Z,3.90
2022-08-26T10:11:53.408Z,3.10
2022-08-26T10:17:48.522Z,3.63
2022-08-26T10:20:41.803Z,4.18
2022-08-26T10:23:37.894Z,4.00
2022-08-26T10:26:30.259Z,3.33
2022-08-26T10:29:23.237Z,3.22
2022-08-26T10:32:24.567Z,3.30
2022-08-26T10:35:13.579Z,4.13
2022-08-26T10:38:04.661Z,4.10
2022-08-26T10:41:09.975Z,3.55
2022-08-26T10:43:59.921Z,3.95
2022-08-26T10:46:51.369Z,3.58
2022-08-26T10:49:39.734Z,3.55
2022-08-26T10:53:19.554Z,4.50
2022-08-26T10:56:20.655Z,4.13
2022-08-26T10:59:31.473Z,3.67
2022-08-26T11:02:40.789Z,4.00
2022-08-26T11:05:33.914Z,4.85
2022-08-26T11:08:20.813Z,3.58
2022-08-26T11:11:08.286Z,4.07
2022-08-26T11:13:57.204Z,4.43
2022-08-26T11:16:51.941Z,3.33
2022-08-26T11:19:59.372Z,3.65
2022-08-26T11:22:47.918Z,4.20
2022-08-26T11:25:54.284Z,3.85
2022-08-26T11:28:49.524Z,3.55
2022-08-26T11:31:38.831Z,3.67
2022-08-26T11:34:54.090Z,3.63
2022-08-26T11:37:42.693Z,4.15
2022-08-26T11:40:33.264Z,3.63
2022-08-26T11:43:23.942Z,3.25
2022-08-26T11:46:12.844Z,3.03
2022-08-26T11:49:06.420Z,3.28
2022-08-26T11:51:55.724Z,4.68
2022-08-26T11:55:09.157Z,3.58
2022-08-26T11:58:00.849Z,3.28
2022-08-26T12:00:52.699Z,3.08
2022-08-26T12:03:45.699Z,2.97
2022-08-26T12:09:34.884Z,3.20
2022-08-26T12:12:35.167Z,3.58
2022-08-26T12:15:22.920Z,3.75
2022-08-26T12:18:29.698Z,3.35
2022-08-26T12:21:22.680Z,3.25
2022-08-26T12:24:10.346Z,3.85
2022-08-26T12:27:17.272Z,3.58
2022-08-26T12:30:23.202Z,3.13
2022-08-26T12:33:22.336Z,3.90
2022-08-26T12:36:10.044Z,3.60
2022-08-26T12:38:58.317Z,3.15
2022-08-26T12:41:54.698Z,3.85
2022-08-26T12:45:06.564Z,3.10
2022-08-26T12:47:55.858Z,3.20
2022-08-26T12:50:49.208Z,3.97
2022-08-26T12:53:43.015Z,3.13
2022-08-26T12:56:39.534Z,3.10
2022-08-26T12:59:26.163Z,3.40
2022-08-26T13:02:35.857Z,2.92
2022-08-26T13:05:35.439Z,3.50
2022-08-26T13:08:28.400Z,3.05
2022-08-26T13:11:18.926Z,3.22
2022-08-26T13:14:11.121Z,2.78
2022-08-26T13:16:57.428Z,3.23
2022-08-26T13:19:43.646Z,3.42
2022-08-26T13:22:30.038Z,3.78
2022-08-26T13:25:16.761Z,3.45
2022-08-26T13:28:06.110Z,3.13
2022-08-26T13:30:51.970Z,3.20
2022-08-26T13:33:38.895Z,2.97
2022-08-26T13:36:25.544Z,3.08
2022-08-26T13:39:12.744Z,2.83
2022-08-26T13:41:58.982Z,3.22
2022-08-26T13:44:47.701Z,3.55
2022-08-26T13:47:33.916Z,3.05
2022-08-26T13:50:19.678Z,2.90
2022-08-26T13:53:05.645Z,2.97
2022-08-26T13:55:51.676Z,2.80
2022-08-26T13:58:37.628Z,3.53
2022-08-26T14:01:24.265Z,2.65
2022-08-26T14:04:10.450Z,2.50
2022-08-26T14:06:56.633Z,2.70
2022-08-26T14:09:42.759Z,2.65
2022-08-26T14:12:29.255Z,3.08
2022-08-26T14:15:17.913Z,3.20
2022-08-26T14:18:06.808Z,3.00
2022-08-26T14:20:55.671Z,2.70
2022-08-26T14:23:41.881Z,2.85
2022-08-26T14:26:29.799Z,3.10
2022-08-26T14:29:16.874Z,3.17
2022-08-26T14:32:11.340Z,2.67
2022-08-26T14:34:57.677Z,2.75
2022-08-26T14:37:43.950Z,2.90
2022-08-26T14:40:31.967Z,3.10
2022-08-26T14:43:19.938Z,2.97
2022-08-26T14:46:05.822Z,2.80
2022-08-26T14:48:51.712Z,2.95
2022-08-26T14:51:40.950Z,3.00
2022-08-26T14:54:30.110Z,2.83
2022-08-26T14:57:16.431Z,2.72
2022-08-26T15:00:07.432Z,3.00
2022-08-26T15:02:53.635Z,2.85
2022-08-26T15:05:48.012Z,2.78
2022-08-26T15:08:36.621Z,3.05
2022-08-26T15:11:22.779Z,2.97
2022-08-26T15:14:14.798Z,3.08
2022-08-26T15:17:06.563Z,2.95
2022-08-26T15:19:52.664Z,2.90
2022-08-26T15:22:39.689Z,2.72
2022-08-26T15:25:25.920Z,2.80
2022-08-26T15:28:12.254Z,3.05
2022-08-26T15:30:58.553Z,2.55
2022-08-26T15:33:47.119Z,3.42
2022-08-26T15:36:34.164Z,2.85
2022-08-26T15:39:20.951Z,2.40
2022-08-26T15:42:07.240Z,2.80
2022-08-26T15:44:53.541Z,2.55
2022-08-26T15:47:55.414Z,3.20
2022-08-26T15:50:57.463Z,3.10
2022-08-26T15:53:43.683Z,2.40
2022-08-26T15:56:36.253Z,2.75
2022-08-26T15:59:22.701Z,3.03
2022-08-26T16:02:09.550Z,2.95
2022-08-26T16:04:55.731Z,2.70
2022-08-26T16:07:43.473Z,3.00
2022-08-26T16:10:31.023Z,2.80
2022-08-26T16:13:18.849Z,2.70
2022-08-26T16:16:05.534Z,3.30
2022-08-26T16:18:52.460Z,3.08
2022-08-26T16:21:39.910Z,3.05
2022-08-26T16:24:30.231Z,3.35
2022-08-26T16:27:16.908Z,2.83
2022-08-26T16:30:06.028Z,3.72
2022-08-26T16:32:52.224Z,2.60
2022-08-26T16:35:39.207Z,3.17
2022-08-26T16:38:25.351Z,3.30
2022-08-26T16:41:11.310Z,3.30
2022-08-26T16:43:58.705Z,3.13
2022-08-26T16:46:45.681Z,3.03
2022-08-26T16:49:32.105Z,2.92
2022-08-26T16:52:18.720Z,3.40
2022-08-26T16:55:07.396Z,3.40
2022-08-26T16:57:55.466Z,3.30
2022-08-26T17:00:41.914Z,3.22
2022-08-26T17:03:28.118Z,4.15
2022-08-26T17:06:14.165Z,3.03
2022-08-26T17:09:00.126Z,2.75
2022-08-26T17:11:46.513Z,3.60
2022-08-26T17:14:33.516Z,3.40
2022-08-26T17:17:19.662Z,2.83
2022-08-26T17:20:09.692Z,2.50
2022-08-26T17:22:56.616Z,2.83
2022-08-26T17:25:43.097Z,2.47
2022-08-26T17:28:29.490Z,2.65
2022-08-26T17:31:16.159Z,2.88
2022-08-26T17:34:02.193Z,2.67
2022-08-26T17:36:48.316Z,3.25
2022-08-26T17:39:37.083Z,2.88
2022-08-26T17:42:23.413Z,2.95
2022-08-26T17:45:21.735Z,2.80
2022-08-26T17:48:08.445Z,2.63
2022-08-26T17:50:54.838Z,3.03
2022-08-26T17:53:41.686Z,2.83
2022-08-26T17:56:29.392Z,2.83
2022-08-26T17:59:15.547Z,3.45
2022-08-26T18:02:01.909Z,2.90
2022-08-26T18:04:48.620Z,3.30
2022-08-26T18:07:34.982Z,3.45
2022-08-26T18:10:31.304Z,3.80
2022-08-26T18:13:18.790Z,3.30
2022-08-26T18:16:06.657Z,3.08
2022-08-26T18:18:53.703Z,2.80
2022-08-26T18:21:39.916Z,2.90
2022-08-26T18:24:28.595Z,3.53
2022-08-26T18:27:14.892Z,3.15
2022-08-26T18:30:01.547Z,3.28
2022-08-26T18:32:49.354Z,3.30
2022-08-26T18:35:43.572Z,2.80
2022-08-26T18:38:29.978Z,3.20
2022-08-26T18:41:21.460Z,3.03
2022-08-26T18:44:13.308Z,2.95
2022-08-26T18:47:00.013Z,2.88
2022-08-26T18:49:47.757Z,3.13
2022-08-26T18:52:34.054Z,2.80
2022-08-26T18:55:20.175Z,3.22
2022-08-26T18:58:06.658Z,3.10
2022-08-26T19:00:52.986Z,3.30
2022-08-26T19:03:39.416Z,3.72
2022-08-26T19:06:26.955Z,2.88
2022-08-26T19:09:14.786Z,3.30
2022-08-26T19:12:05.124Z,2.78
2022-08-26T19:14:51.560Z,3.47
2022-08-26T19:17:37.881Z,3.63
2022-08-26T19:20:24.615Z,3.22
2022-08-26T19:23:30.447Z,4.50
2022-08-26T19:26:18.643Z,4.22
2022-08-26T19:29:05.082Z,5.30
2022-08-26T19:31:51.580Z,3.97
2022-08-26T19:34:37.673Z,3.67
2022-08-26T19:37:23.919Z,4.00
2022-08-26T19:40:10.757Z,3.45
2022-08-26T19:43:00.070Z,3.47
2022-08-26T19:45:46.225Z,3.85
2022-08-26T19:48:32.559Z,3.72
2022-08-26T19:51:25.372Z,4.50
2022-08-26T19:54:11.406Z,3.70
2022-08-26T19:56:57.730Z,3.95
2022-08-26T19:59:44.594Z,4.32
2022-08-26T20:02:30.748Z,3.95
2022-08-26T20:05:20.440Z,3.88
2022-08-26T20:08:06.437Z,3.60
2022-08-26T20:10:52.659Z,3.83
2022-08-26T20:13:39.828Z,5.43
2022-08-26T20:16:26.387Z,4.28
2022-08-26T20:19:34.330Z,4.20
2022-08-26T20:22:23.303Z,5.40
2022-08-26T20:25:10.140Z,4.38
2022-08-26T20:27:56.385Z,4.68
2022-08-26T20:30:42.534Z,4.22
2022-08-26T20:33:29.083Z,4.30
2022-08-26T20:36:15.549Z,4.95
2022-08-26T20:39:01.651Z,5.18
2022-08-26T20:41:47.830Z,4.70
2022-08-26T20:44:34.289Z,4.72
2022-08-26T20:47:20.411Z,5.13
2022-08-26T20:50:08.056Z,4.90
2022-08-26T20:52:54.091Z,4.85
2022-08-26T20:55:40.364Z,4.93
2022-08-26T20:58:26.558Z,4.55
2022-08-26T21:01:22.438Z,4.60
2022-08-26T21:04:11.619Z,4.30
2022-08-26T21:06:58.313Z,4.70
2022-08-26T21:09:44.835Z,4.07
2022-08-26T21:12:31.738Z,4.10
2022-08-26T21:15:18.536Z,4.47
2022-08-26T21:18:04.897Z,4.20
2022-08-26T21:20:51.724Z,4.40
2022-08-26T21:23:38.615Z,4.97
2022-08-26T21:26:25.367Z,4.22
2022-08-26T21:29:13.485Z,5.07
2022-08-26T21:31:59.436Z,4.50
2022-08-26T21:34:45.624Z,5.20
2022-08-26T21:37:31.677Z,4.90
2022-08-26T21:40:18.371Z,4.75
2022-08-26T21:43:05.016Z,4.50
2022-08-26T21:45:51.511Z,4.35
2022-08-26T21:48:39.220Z,4.93
2022-08-26T21:51:28.167Z,5.00
2022-08-26T21:54:15.305Z,5.35
2022-08-26T21:57:01.955Z,5.50
2022-08-26T21:59:48.367Z,4.95
2022-08-26T22:02:34.965Z,5.38
2022-08-26T22:05:24.158Z,4.97
2022-08-26T22:08:10.625Z,5.50
2022-08-26T22:10:57.665Z,5.13
2022-08-26T22:13:44.120Z,5.80
2022-08-26T22:16:30.241Z,5.55
2022-08-26T22:19:17.256Z,5.03
2022-08-26T22:22:03.656Z,5.43
2022-08-26T22:24:50.333Z,6.53
2022-08-26T22:27:40.549Z,6.18
2022-08-26T22:30:29.355Z,5.80
2022-08-26T22:33:16.805Z,5.30
2022-08-26T22:36:03.303Z,5.35
2022-08-26T22:38:50.825Z,5.15
2022-08-26T22:41:37.133Z,5.57
2022-08-26T22:44:23.876Z,5.18
2022-08-26T22:47:10.087Z,4.68
2022-08-26T22:49:58.056Z,5.47
2022-08-26T22:52:44.260Z,4.95
2022-08-26T22:55:30.373Z,5.18
2022-08-26T22:58:18.087Z,5.22
2022-08-26T23:01:06.031Z,5.00
2022-08-26T23:03:52.316Z,4.47
2022-08-26T23:06:43.029Z,5.25
2022-08-26T23:09:29.197Z,5.60
2022-08-26T23:12:15.042Z,4.75
2022-08-26T23:15:01.729Z,5.25
2022-08-26T23:17:53.583Z,4.68
2022-08-26T23:20:44.891Z,5.00
2022-08-26T23:23:31.233Z,4.95
2022-08-26T23:26:17.879Z,4.50
2022-08-26T23:29:05.741Z,6.07
2022-08-26T23:31:52.642Z,5.82
2022-08-26T23:34:57.030Z,6.22
2022-08-26T23:37:45.014Z,5.32
2022-08-26T23:40:34.920Z,5.45
2022-08-26T23:43:21.093Z,7.38
2022-08-26T23:46:07.381Z,5.57
2022-08-26T23:48:53.442Z,4.93
2022-08-26T23:51:58.270Z,6.28
2022-08-26T23:54:45.258Z,4.93
2022-08-26T23:57:32.706Z,5.68
